createdAt,value
2017-08-24T00:00:04.231Z,1013.61
2017-08-24T00:01:04.208Z,1013.61
2017-08-24T00:02:04.190Z,1013.62
2017-08-24T00:03:04.169Z,1013.63
2017-08-24T00:04:04.143Z,1013.63
2017-08-24T00:05:04.125Z,1013.63
2017-08-24T00:06:04.101Z,1013.63
2017-08-24T00:07:04.081Z,1013.61
2017-08-24T00:08:04.059Z,1013.62
2017-08-24T00:09:04.035Z,1013.62
2017-08-24T00:10:04.018Z,1013.62
2017-08-24T00:11:03.995Z,1013.63
2017-08-24T00:12:03.976Z,1013.62
2017-08-24T00:13:03.959Z,1013.65
2017-08-24T00:14:03.929Z,1013.64
2017-08-24T00:15:03.910Z,1013.66
2017-08-24T00:16:03.886Z,1013.67
2017-08-24T00:17:03.864Z,1013.65
2017-08-24T00:18:03.841Z,1013.64
2017-08-24T00:19:03.825Z,1013.63
2017-08-24T00:20:03.800Z,1013.63
2017-08-24T00:21:03.779Z,1013.63
2017-08-24T00:22:03.758Z,1013.61
2017-08-24T00:23:03.738Z,1013.59
2017-08-24T00:24:03.718Z,1013.59
2017-08-24T00:25:03.695Z,1013.55
2017-08-24T00:26:03.668Z,1013.50
2017-08-24T00:27:03.651Z,1013.56
2017-08-24T00:28:03.631Z,1013.53
2017-08-24T00:29:03.607Z,1013.52
2017-08-24T00:30:03.583Z,1013.55
2017-08-24T00:31:03.563Z,1013.51
2017-08-24T00:32:03.542Z,1013.52
2017-08-24T00:33:03.518Z,1013.53
2017-08-24T00:34:03.498Z,1013.51
2017-08-24T00:35:03.477Z,1013.51
2017-08-24T00:36:03.454Z,1013.49
2017-08-24T00:37:03.433Z,1013.47
2017-08-24T00:38:03.411Z,1013.45
2017-08-24T00:39:03.391Z,1013.44
2017-08-24T00:40:03.368Z,1013.41
2017-08-24T00:41:03.351Z,1013.34
2017-08-24T00:42:03.326Z,1013.30
2017-08-24T00:43:03.306Z,1013.33
2017-08-24T00:44:03.305Z,1013.32
2017-08-24T00:45:03.261Z,1013.32
2017-08-24T00:46:03.240Z,1013.30
2017-08-24T00:47:03.222Z,1013.37
2017-08-24T00:48:03.195Z,1013.32
2017-08-24T00:49:03.173Z,1013.33
2017-08-24T00:50:03.157Z,1013.33
2017-08-24T00:51:03.129Z,1013.35
2017-08-24T00:52:03.109Z,1013.34
2017-08-24T00:53:03.090Z,1013.38
2017-08-24T00:54:03.072Z,1013.39
2017-08-24T00:55:03.044Z,1013.42
2017-08-24T00:56:03.023Z,1013.37
2017-08-24T00:57:03.004Z,1013.34
2017-08-24T00:58:02.983Z,1013.37
2017-08-24T00:59:02.960Z,1013.36
2017-08-24T01:00:02.938Z,1013.32
2017-08-24T01:01:02.920Z,1013.33
2017-08-24T01:02:02.894Z,1013.33
2017-08-24T01:03:02.870Z,1013.38
2017-08-24T01:04:02.854Z,1013.35
2017-08-24T01:05:02.831Z,1013.34
2017-08-24T01:06:02.811Z,1013.38
2017-08-24T01:07:02.791Z,1013.35
2017-08-24T01:08:02.764Z,1013.38
2017-08-24T01:09:02.743Z,1013.37
2017-08-24T01:10:02.725Z,1013.38
2017-08-24T01:11:02.701Z,1013.37
2017-08-24T01:12:02.683Z,1013.40
2017-08-24T01:13:02.657Z,1013.35
2017-08-24T01:14:02.637Z,1013.38
2017-08-24T01:15:02.612Z,1013.37
2017-08-24T01:16:02.596Z,1013.30
2017-08-24T01:17:02.574Z,1013.29
2017-08-24T01:18:02.547Z,1013.31
2017-08-24T01:19:02.526Z,1013.26
2017-08-24T01:20:02.506Z,1013.22
2017-08-24T01:21:02.486Z,1013.19
2017-08-24T01:22:02.463Z,1013.19
2017-08-24T01:23:02.444Z,1013.20
2017-08-24T01:24:02.420Z,1013.22
2017-08-24T01:25:02.418Z,1013.20
2017-08-24T01:26:02.379Z,1013.18
2017-08-24T01:27:02.353Z,1013.16
2017-08-24T01:28:02.337Z,1013.19
2017-08-24T01:29:02.311Z,1013.19
2017-08-24T01:30:02.293Z,1013.21
2017-08-24T01:31:02.267Z,1013.18
2017-08-24T01:32:02.248Z,1013.15
2017-08-24T01:33:02.230Z,1013.16
2017-08-24T01:34:02.203Z,1013.08
2017-08-24T01:35:02.183Z,1013.10
2017-08-24T01:36:02.160Z,1013.09
2017-08-24T01:37:02.142Z,1013.07
2017-08-24T01:38:02.120Z,1013.07
2017-08-24T01:39:02.096Z,1013.08
2017-08-24T01:40:02.074Z,1013.10
2017-08-24T01:41:02.050Z,1013.06
2017-08-24T01:42:02.033Z,1013.04
2017-08-24T01:43:02.009Z,1013.02
2017-08-24T01:44:01.988Z,1013.03
2017-08-24T01:45:01.966Z,1013.00
2017-08-24T01:46:01.948Z,1012.98
2017-08-24T01:47:01.923Z,1013.01
2017-08-24T01:48:01.904Z,1012.98
2017-08-24T01:49:01.877Z,1013.01
2017-08-24T01:50:01.857Z,1013.02
2017-08-24T01:51:01.837Z,1013.00
2017-08-24T01:52:01.815Z,1013.05
2017-08-24T01:53:01.799Z,1013.04
2017-08-24T01:54:01.772Z,1013.03
2017-08-24T01:55:01.750Z,1013.04
2017-08-24T01:56:01.731Z,1013.04
2017-08-24T01:57:01.706Z,1013.04
2017-08-24T01:58:01.685Z,1013.02
2017-08-24T01:59:01.664Z,1013.04
2017-08-24T02:00:01.644Z,1013.02
2017-08-24T02:01:01.619Z,1013.01
2017-08-24T02:02:01.600Z,1013.01
2017-08-24T02:03:01.574Z,1013.00
2017-08-24T02:04:01.554Z,1012.99
2017-08-24T02:05:01.536Z,1013.04
2017-08-24T02:06:01.516Z,1013.02
2017-08-24T02:07:01.490Z,1012.99
2017-08-24T02:08:01.471Z,1013.00
2017-08-24T02:09:01.447Z,1013.01
2017-08-24T02:10:01.423Z,1013.00
2017-08-24T02:11:01.407Z,1012.99
2017-08-24T02:12:01.380Z,1013.01
2017-08-24T02:13:01.360Z,1012.98
2017-08-24T02:14:01.337Z,1012.99
2017-08-24T02:15:01.317Z,1012.99
2017-08-24T02:16:01.293Z,1012.99
2017-08-24T02:17:01.296Z,1012.96
2017-08-24T02:18:01.253Z,1012.96
2017-08-24T02:19:01.230Z,1012.94
2017-08-24T02:20:01.207Z,1012.93
2017-08-24T02:21:01.190Z,1012.91
2017-08-24T02:22:01.170Z,1012.94
2017-08-24T02:23:01.146Z,1012.88
2017-08-24T02:24:01.123Z,1012.89
2017-08-24T02:25:01.103Z,1012.88
2017-08-24T02:26:01.079Z,1012.86
2017-08-24T02:27:01.060Z,1012.87
2017-08-24T02:28:01.034Z,1012.83
2017-08-24T02:29:01.012Z,1012.83
2017-08-24T02:30:00.993Z,1012.81
2017-08-24T02:31:00.969Z,1012.78
2017-08-24T02:32:00.949Z,1012.78
2017-08-24T02:33:00.927Z,1012.73
2017-08-24T02:34:00.910Z,1012.73
2017-08-24T02:35:00.884Z,1012.74
2017-08-24T02:36:00.862Z,1012.69
2017-08-24T02:37:00.843Z,1012.67
2017-08-24T02:38:00.819Z,1012.67
2017-08-24T02:39:00.798Z,1012.70
2017-08-24T02:40:00.774Z,1012.63
2017-08-24T02:41:00.754Z,1012.62
2017-08-24T02:42:00.734Z,1012.61
2017-08-24T02:43:00.709Z,1012.58
2017-08-24T02:44:00.690Z,1012.57
2017-08-24T02:45:00.668Z,1012.57
2017-08-24T02:46:00.648Z,1012.53
2017-08-24T02:47:00.627Z,1012.53
2017-08-24T02:48:00.604Z,1012.50
2017-08-24T02:49:00.580Z,1012.44
2017-08-24T02:50:00.562Z,1012.44
2017-08-24T02:51:00.540Z,1012.46
2017-08-24T02:52:00.521Z,1012.45
2017-08-24T02:53:00.493Z,1012.42
2017-08-24T02:54:00.473Z,1012.46
2017-08-24T02:55:00.449Z,1012.46
2017-08-24T02:56:00.429Z,1012.48
2017-08-24T02:57:00.406Z,1012.51
2017-08-24T02:58:00.388Z,1012.53
2017-08-24T02:59:00.363Z,1012.52
2017-08-24T03:00:00.345Z,1012.51
2017-08-24T03:01:00.321Z,1012.57
2017-08-24T03:02:00.299Z,1012.59
2017-08-24T03:03:00.277Z,1012.60
2017-08-24T03:04:00.257Z,1012.58
2017-08-24T03:05:00.235Z,1012.55
2017-08-24T03:06:00.215Z,1012.50
2017-08-24T03:07:00.196Z,1012.51
2017-08-24T03:08:00.172Z,1012.48
2017-08-24T03:09:00.150Z,1012.52
2017-08-24T03:10:00.124Z,1012.49
2017-08-24T03:11:00.103Z,1012.49
2017-08-24T03:12:00.083Z,1012.46
2017-08-24T03:13:00.074Z,1012.48
2017-08-24T03:14:00.042Z,1012.49
2017-08-24T03:15:00.016Z,1012.50
2017-08-24T03:15:59.996Z,1012.52
2017-08-24T03:16:59.983Z,1012.53
2017-08-24T03:17:59.951Z,1012.52
2017-08-24T03:18:59.931Z,1012.50
2017-08-24T03:19:59.910Z,1012.52
2017-08-24T03:20:59.886Z,1012.49
2017-08-24T03:21:59.863Z,1012.49
2017-08-24T03:22:59.842Z,1012.47
2017-08-24T03:23:59.824Z,1012.43
2017-08-24T03:24:59.802Z,1012.44
2017-08-24T03:25:59.776Z,1012.46
2017-08-24T03:26:59.757Z,1012.43
2017-08-24T03:27:59.738Z,1012.41
2017-08-24T03:28:59.715Z,1012.42
2017-08-24T03:29:59.692Z,1012.41
2017-08-24T03:30:59.675Z,1012.38
2017-08-24T03:31:59.652Z,1012.37
2017-08-24T03:32:59.628Z,1012.37
2017-08-24T03:33:59.603Z,1012.37
2017-08-24T03:34:59.585Z,1012.38
2017-08-24T03:35:59.565Z,1012.37
2017-08-24T03:36:59.544Z,1012.35
2017-08-24T03:37:59.522Z,1012.31
2017-08-24T03:38:59.495Z,1012.31
2017-08-24T03:39:59.474Z,1012.31
2017-08-24T03:40:59.461Z,1012.32
2017-08-24T03:41:59.430Z,1012.27
2017-08-24T03:42:59.411Z,1012.30
2017-08-24T03:43:59.425Z,1012.29
2017-08-24T03:44:59.369Z,1012.26
2017-08-24T03:45:59.343Z,1012.27
2017-08-24T03:46:59.324Z,1012.28
2017-08-24T03:47:59.303Z,1012.28
2017-08-24T03:48:59.279Z,1012.29
2017-08-24T03:49:59.261Z,1012.28
2017-08-24T03:50:59.237Z,1012.28
2017-08-24T03:51:59.213Z,1012.27
2017-08-24T03:52:59.195Z,1012.23
2017-08-24T03:53:59.170Z,1012.21
2017-08-24T03:54:59.147Z,1012.20
2017-08-24T03:55:59.131Z,1012.23
2017-08-24T03:56:59.110Z,1012.26
2017-08-24T03:57:59.082Z,1012.27
2017-08-24T03:58:59.079Z,1012.23
2017-08-24T03:59:59.045Z,1012.21
2017-08-24T04:00:59.022Z,1012.20
2017-08-24T04:01:58.998Z,1012.18
2017-08-24T04:02:58.979Z,1012.19
2017-08-24T04:03:58.955Z,1012.20
2017-08-24T04:04:58.935Z,1012.23
2017-08-24T04:05:58.914Z,1012.20
2017-08-24T04:06:58.896Z,1012.18
2017-08-24T04:07:58.868Z,1012.22
2017-08-24T04:08:58.846Z,1012.20
2017-08-24T04:09:58.822Z,1012.19
2017-08-24T04:10:58.804Z,1012.18
2017-08-24T04:11:58.779Z,1012.20
2017-08-24T04:12:58.760Z,1012.17
2017-08-24T04:13:58.738Z,1012.17
2017-08-24T04:14:58.718Z,1012.15
2017-08-24T04:15:58.697Z,1012.15
2017-08-24T04:16:58.675Z,1012.14
2017-08-24T04:17:58.654Z,1012.14
2017-08-24T04:18:58.626Z,1012.10
2017-08-24T04:19:58.607Z,1012.15
2017-08-24T04:20:58.592Z,1012.18
2017-08-24T04:21:58.561Z,1012.15
2017-08-24T04:22:58.544Z,1012.14
2017-08-24T04:23:58.526Z,1012.09
2017-08-24T04:24:58.503Z,1012.08
2017-08-24T04:25:58.478Z,1012.06
2017-08-24T04:26:58.454Z,1012.07
2017-08-24T04:27:58.432Z,1012.05
2017-08-24T04:28:58.415Z,1012.06
2017-08-24T04:29:58.390Z,1012.11
2017-08-24T04:30:58.368Z,1012.10
2017-08-24T04:31:58.349Z,1012.14
2017-08-24T04:32:58.325Z,1012.13
2017-08-24T04:33:58.306Z,1012.15
2017-08-24T04:34:58.282Z,1012.21
2017-08-24T04:35:58.261Z,1012.13
2017-08-24T04:36:58.237Z,1012.12
2017-08-24T04:37:58.217Z,1012.10
2017-08-24T04:38:58.195Z,1012.12
2017-08-24T04:39:58.172Z,1012.12
2017-08-24T04:40:58.153Z,1012.14
2017-08-24T04:41:58.128Z,1012.17
2017-08-24T04:42:58.111Z,1012.15
2017-08-24T04:43:58.090Z,1012.14
2017-08-24T04:44:58.065Z,1012.15
2017-08-24T04:45:58.044Z,1012.17
2017-08-24T04:46:58.022Z,1012.21
2017-08-24T04:47:58.001Z,1012.21
2017-08-24T04:48:57.977Z,1012.20
2017-08-24T04:49:57.957Z,1012.20
2017-08-24T04:50:57.935Z,1012.20
2017-08-24T04:51:57.914Z,1012.21
2017-08-24T04:52:57.891Z,1012.20
2017-08-24T04:53:57.870Z,1012.19
2017-08-24T04:54:57.847Z,1012.15
2017-08-24T04:55:57.829Z,1012.16
2017-08-24T04:56:57.805Z,1012.20
2017-08-24T04:57:57.781Z,1012.15
2017-08-24T04:58:57.759Z,1012.17
2017-08-24T04:59:57.738Z,1012.16
2017-08-24T05:00:57.721Z,1012.15
2017-08-24T05:01:57.696Z,1012.19
2017-08-24T05:02:57.672Z,1012.17
2017-08-24T05:03:57.655Z,1012.19
2017-08-24T05:04:57.632Z,1012.21
2017-08-24T05:05:57.609Z,1012.23
2017-08-24T05:06:57.587Z,1012.24
2017-08-24T05:07:57.564Z,1012.27
2017-08-24T05:08:57.545Z,1012.25
2017-08-24T05:09:57.525Z,1012.24
2017-08-24T05:10:57.501Z,1012.24
2017-08-24T05:11:57.476Z,1012.27
2017-08-24T05:12:57.456Z,1012.26
2017-08-24T05:13:57.433Z,1012.24
2017-08-24T05:14:57.411Z,1012.22
2017-08-24T05:15:57.392Z,1012.20
2017-08-24T05:16:57.372Z,1012.20
2017-08-24T05:17:57.350Z,1012.14
2017-08-24T05:18:57.330Z,1012.16
2017-08-24T05:19:57.306Z,1012.19
2017-08-24T05:20:57.282Z,1012.22
2017-08-24T05:21:57.261Z,1012.20
2017-08-24T05:22:57.237Z,1012.21
2017-08-24T05:23:57.221Z,1012.18
2017-08-24T05:24:57.199Z,1012.16
2017-08-24T05:25:57.173Z,1012.19
2017-08-24T05:26:57.151Z,1012.14
2017-08-24T05:27:57.131Z,1012.15
2017-08-24T05:28:57.112Z,1012.16
2017-08-24T05:29:57.087Z,1012.10
2017-08-24T05:30:57.065Z,1012.12
2017-08-24T05:31:57.046Z,1012.10
2017-08-24T05:32:57.019Z,1012.07
2017-08-24T05:33:57.002Z,1012.08
2017-08-24T05:34:56.977Z,1012.07
2017-08-24T05:35:56.957Z,1012.07
2017-08-24T05:36:56.935Z,1012.11
2017-08-24T05:37:56.914Z,1012.13
2017-08-24T05:38:56.892Z,1012.13
2017-08-24T05:39:56.872Z,1012.14
2017-08-24T05:40:56.846Z,1012.10
2017-08-24T05:41:56.826Z,1012.11
2017-08-24T05:42:56.808Z,1012.11
2017-08-24T05:43:56.783Z,1012.08
2017-08-24T05:44:56.764Z,1012.07
2017-08-24T05:45:56.741Z,1012.09
2017-08-24T05:46:56.716Z,1012.09
2017-08-24T05:47:56.697Z,1012.05
2017-08-24T05:48:56.677Z,1012.05
2017-08-24T05:49:56.653Z,1012.05
2017-08-24T05:50:56.631Z,1012.01
2017-08-24T05:51:56.608Z,1011.97
2017-08-24T05:52:56.587Z,1011.95
2017-08-24T05:53:56.563Z,1011.92
2017-08-24T05:54:56.542Z,1011.91
2017-08-24T05:55:56.523Z,1011.89
2017-08-24T05:56:56.502Z,1011.88
2017-08-24T05:57:56.481Z,1011.91
2017-08-24T05:58:56.458Z,1011.94
2017-08-24T05:59:56.436Z,1011.96
2017-08-24T06:00:56.418Z,1011.95
2017-08-24T06:01:56.389Z,1012.01
2017-08-24T06:02:56.371Z,1011.96
2017-08-24T06:03:56.349Z,1011.98
2017-08-24T06:04:56.325Z,1011.99
2017-08-24T06:05:56.312Z,1012.01
2017-08-24T06:06:56.282Z,1011.98
2017-08-24T06:07:56.263Z,1012.00
2017-08-24T06:08:56.241Z,1011.99
2017-08-24T06:09:56.216Z,1011.96
2017-08-24T06:10:56.197Z,1011.95
2017-08-24T06:11:56.177Z,1011.95
2017-08-24T06:12:56.154Z,1011.94
2017-08-24T06:13:56.132Z,1011.95
2017-08-24T06:14:56.110Z,1011.96
2017-08-24T06:15:56.087Z,1011.96
2017-08-24T06:16:56.070Z,1011.95
2017-08-24T06:17:56.045Z,1011.97
2017-08-24T06:18:56.023Z,1012.01
2017-08-24T06:19:56.005Z,1012.02
2017-08-24T06:20:55.979Z,1012.02
2017-08-24T06:21:55.959Z,1012.01
2017-08-24T06:22:55.939Z,1012.03
2017-08-24T06:23:55.916Z,1012.04
2017-08-24T06:24:55.894Z,1012.00
2017-08-24T06:25:55.869Z,1011.97
2017-08-24T06:26:55.853Z,1011.95
2017-08-24T06:27:55.828Z,1011.92
2017-08-24T06:28:55.811Z,1011.93
2017-08-24T06:29:55.791Z,1011.89
2017-08-24T06:30:55.764Z,1011.90
2017-08-24T06:31:55.741Z,1011.89
2017-08-24T06:32:55.721Z,1011.91
2017-08-24T06:33:55.696Z,1011.89
2017-08-24T06:34:55.677Z,1011.83
2017-08-24T06:35:55.656Z,1011.91
2017-08-24T06:36:55.634Z,1011.86
2017-08-24T06:37:55.614Z,1011.93
2017-08-24T06:38:55.589Z,1011.97
2017-08-24T06:39:55.571Z,1011.95
2017-08-24T06:40:55.545Z,1011.97
2017-08-24T06:41:55.525Z,1011.93
2017-08-24T06:42:55.501Z,1011.90
2017-08-24T06:43:55.482Z,1011.94
2017-08-24T06:44:55.470Z,1011.95
2017-08-24T06:45:55.436Z,1011.93
2017-08-24T06:46:55.419Z,1011.98
2017-08-24T06:47:55.394Z,1011.98
2017-08-24T06:48:55.372Z,1011.97
2017-08-24T06:49:55.354Z,1011.93
2017-08-24T06:50:55.328Z,1011.91
2017-08-24T06:51:55.308Z,1011.87
2017-08-24T06:52:55.288Z,1011.89
2017-08-24T06:53:55.263Z,1011.85
2017-08-24T06:54:55.246Z,1011.86
2017-08-24T06:55:55.228Z,1011.84
2017-08-24T06:56:55.209Z,1011.83
2017-08-24T06:57:55.177Z,1011.86
2017-08-24T06:58:55.156Z,1011.82
2017-08-24T06:59:55.137Z,1011.78
2017-08-24T07:00:55.114Z,1011.82
2017-08-24T07:01:55.093Z,1011.81
2017-08-24T07:02:55.074Z,1011.80
2017-08-24T07:03:55.049Z,1011.82
2017-08-24T07:04:55.032Z,1011.79
2017-08-24T07:05:55.004Z,1011.79
2017-08-24T07:06:54.985Z,1011.79
2017-08-24T07:07:54.967Z,1011.82
2017-08-24T07:08:54.941Z,1011.87
2017-08-24T07:09:54.922Z,1011.88
2017-08-24T07:10:54.902Z,1011.89
2017-08-24T07:11:54.876Z,1011.88
2017-08-24T07:12:54.859Z,1011.90
2017-08-24T07:13:54.833Z,1011.88
2017-08-24T07:14:54.811Z,1011.91
2017-08-24T07:15:54.790Z,1011.91
2017-08-24T07:16:54.772Z,1011.92
2017-08-24T07:17:54.749Z,1011.93
2017-08-24T07:18:54.730Z,1011.92
2017-08-24T07:19:54.704Z,1011.92
2017-08-24T07:20:54.688Z,1011.88
2017-08-24T07:21:54.664Z,1011.90
2017-08-24T07:22:54.642Z,1011.89
2017-08-24T07:23:54.618Z,1011.85
2017-08-24T07:24:54.597Z,1011.85
2017-08-24T07:25:54.579Z,1011.80
2017-08-24T07:26:54.556Z,1011.80
2017-08-24T07:27:54.532Z,1011.86
2017-08-24T07:28:54.512Z,1011.87
2017-08-24T07:29:54.489Z,1011.88
2017-08-24T07:30:54.472Z,1011.90
2017-08-24T07:31:54.449Z,1011.93
2017-08-24T07:32:54.427Z,1011.90
2017-08-24T07:33:54.407Z,1011.93
2017-08-24T07:34:54.383Z,1011.91
2017-08-24T07:35:54.369Z,1011.95
2017-08-24T07:36:54.338Z,1011.95
2017-08-24T07:37:54.318Z,1011.96
2017-08-24T07:38:54.297Z,1011.99
2017-08-24T07:39:54.275Z,1011.96
2017-08-24T07:40:54.257Z,1011.97
2017-08-24T07:41:54.232Z,1011.99
2017-08-24T07:42:54.212Z,1011.97
2017-08-24T07:43:54.192Z,1011.95
2017-08-24T07:44:54.176Z,1011.96
2017-08-24T07:45:54.146Z,1011.93
2017-08-24T07:46:54.126Z,1011.92
2017-08-24T07:47:54.104Z,1011.90
2017-08-24T07:48:54.087Z,1011.88
2017-08-24T07:49:54.062Z,1011.92
2017-08-24T07:50:54.039Z,1011.93
2017-08-24T07:51:54.020Z,1011.93
2017-08-24T07:52:53.999Z,1011.91
2017-08-24T07:53:53.980Z,1011.91
2017-08-24T07:54:53.956Z,1011.90
2017-08-24T07:55:53.937Z,1011.86
2017-08-24T07:56:53.916Z,1011.87
2017-08-24T07:57:53.889Z,1011.89
2017-08-24T07:58:53.868Z,1011.86
2017-08-24T07:59:53.847Z,1011.84
2017-08-24T08:00:53.825Z,1011.87
2017-08-24T08:01:53.809Z,1011.84
2017-08-24T08:02:53.784Z,1011.83
2017-08-24T08:03:53.764Z,1011.82
2017-08-24T08:04:53.742Z,1011.83
2017-08-24T08:05:53.720Z,1011.82
2017-08-24T08:06:53.702Z,1011.78
2017-08-24T08:07:53.680Z,1011.75
2017-08-24T08:08:53.659Z,1011.76
2017-08-24T08:09:53.637Z,1011.74
2017-08-24T08:10:53.613Z,1011.77
2017-08-24T08:11:53.592Z,1011.71
2017-08-24T08:12:53.569Z,1011.74
2017-08-24T08:13:53.546Z,1011.71
2017-08-24T08:14:53.526Z,1011.76
2017-08-24T08:15:53.507Z,1011.75
2017-08-24T08:16:53.486Z,1011.73
2017-08-24T08:17:53.463Z,1011.75
2017-08-24T08:18:53.440Z,1011.74
2017-08-24T08:19:53.422Z,1011.79
2017-08-24T08:20:53.403Z,1011.77
2017-08-24T08:21:53.379Z,1011.76
2017-08-24T08:22:53.357Z,1011.77
2017-08-24T08:23:53.338Z,1011.77
2017-08-24T08:24:53.318Z,1011.77
2017-08-24T08:25:53.295Z,1011.81
2017-08-24T08:26:53.270Z,1011.78
2017-08-24T08:27:53.253Z,1011.80
2017-08-24T08:28:53.232Z,1011.78
2017-08-24T08:29:53.206Z,1011.79
2017-08-24T08:30:53.186Z,1011.81
2017-08-24T08:31:53.163Z,1011.82
2017-08-24T08:32:53.145Z,1011.78
2017-08-24T08:33:53.120Z,1011.79
2017-08-24T08:34:53.103Z,1011.79
2017-08-24T08:35:53.077Z,1011.79
2017-08-24T08:36:53.056Z,1011.77
2017-08-24T08:37:53.037Z,1011.74
2017-08-24T08:38:53.018Z,1011.70
2017-08-24T08:39:52.996Z,1011.67
2017-08-24T08:40:52.971Z,1011.66
2017-08-24T08:41:52.949Z,1011.72
2017-08-24T08:42:52.930Z,1011.72
2017-08-24T08:43:52.911Z,1011.71
2017-08-24T08:44:52.919Z,1011.77
2017-08-24T08:45:52.864Z,1011.72
2017-08-24T08:46:52.843Z,1011.70
2017-08-24T08:47:52.822Z,1011.72
2017-08-24T08:48:52.802Z,1011.74
2017-08-24T08:49:52.778Z,1011.77
2017-08-24T08:50:52.762Z,1011.77
2017-08-24T08:51:52.741Z,1011.80
2017-08-24T08:52:52.717Z,1011.74
2017-08-24T08:53:52.696Z,1011.76
2017-08-24T08:54:52.673Z,1011.74
2017-08-24T08:55:52.655Z,1011.74
2017-08-24T08:56:52.630Z,1011.70
2017-08-24T08:57:52.607Z,1011.71
2017-08-24T08:58:52.589Z,1011.72
2017-08-24T08:59:52.570Z,1011.70
2017-08-24T09:00:52.549Z,1011.71
2017-08-24T09:01:52.525Z,1011.64
2017-08-24T09:02:52.504Z,1011.64
2017-08-24T09:03:52.485Z,1011.61
2017-08-24T09:04:52.464Z,1011.58
2017-08-24T09:05:52.440Z,1011.61
2017-08-24T09:06:52.418Z,1011.62
2017-08-24T09:07:52.397Z,1011.65
2017-08-24T09:08:52.376Z,1011.65
2017-08-24T09:09:52.357Z,1011.63
2017-08-24T09:10:52.332Z,1011.62
2017-08-24T09:11:52.312Z,1011.65
2017-08-24T09:12:52.288Z,1011.63
2017-08-24T09:13:52.268Z,1011.64
2017-08-24T09:14:52.245Z,1011.60
2017-08-24T09:15:52.226Z,1011.60
2017-08-24T09:16:52.208Z,1011.62
2017-08-24T09:17:52.185Z,1011.65
2017-08-24T09:18:52.162Z,1011.61
2017-08-24T09:19:52.144Z,1011.60
2017-08-24T09:20:52.119Z,1011.54
2017-08-24T09:21:52.096Z,1011.50
2017-08-24T09:22:52.077Z,1011.51
2017-08-24T09:23:52.058Z,1011.50
2017-08-24T09:24:52.034Z,1011.60
2017-08-24T09:25:52.015Z,1011.57
2017-08-24T09:26:51.991Z,1011.61
2017-08-24T09:27:51.970Z,1011.62
2017-08-24T09:28:51.951Z,1011.64
2017-08-24T09:29:51.927Z,1011.69
2017-08-24T09:30:51.905Z,1011.66
2017-08-24T09:31:51.887Z,1011.62
2017-08-24T09:32:51.866Z,1011.68
2017-08-24T09:33:51.848Z,1011.64
2017-08-24T09:34:51.821Z,1011.68
2017-08-24T09:35:51.802Z,1011.70
2017-08-24T09:36:51.780Z,1011.65
2017-08-24T09:37:51.758Z,1011.72
2017-08-24T09:38:51.735Z,1011.73
2017-08-24T09:39:51.719Z,1011.72
2017-08-24T09:40:51.718Z,1011.73
2017-08-24T09:41:51.668Z,1011.75
2017-08-24T09:42:51.650Z,1011.77
2017-08-24T09:43:51.629Z,1011.75
2017-08-24T09:44:51.607Z,1011.73
2017-08-24T09:45:51.585Z,1011.72
2017-08-24T09:46:51.566Z,1011.71
2017-08-24T09:47:51.541Z,1011.74
2017-08-24T09:48:51.519Z,1011.68
2017-08-24T09:49:51.501Z,1011.69
2017-08-24T09:50:51.497Z,1011.68
2017-08-24T09:51:51.460Z,1011.64
2017-08-24T09:52:51.435Z,1011.63
2017-08-24T09:53:51.414Z,1011.59
2017-08-24T09:54:51.396Z,1011.59
2017-08-24T09:55:51.370Z,1011.55
2017-08-24T09:56:51.352Z,1011.54
2017-08-24T09:57:51.329Z,1011.57
2017-08-24T09:58:51.305Z,1011.56
2017-08-24T09:59:51.287Z,1011.55
2017-08-24T10:00:51.266Z,1011.48
2017-08-24T10:01:51.245Z,1011.33
2017-08-24T10:02:51.228Z,1011.26
2017-08-24T10:03:51.202Z,1011.23
2017-08-24T10:04:51.177Z,1011.23
2017-08-24T10:05:51.160Z,1011.22
2017-08-24T10:06:51.134Z,1011.18
2017-08-24T10:07:51.116Z,1011.14
2017-08-24T10:08:51.097Z,1011.10
2017-08-24T10:09:51.071Z,1011.05
2017-08-24T10:10:51.054Z,1010.97
2017-08-24T10:11:51.031Z,1010.87
2017-08-24T10:12:51.012Z,1010.78
2017-08-24T10:13:50.988Z,1010.65
2017-08-24T10:14:50.968Z,1010.57
2017-08-24T10:15:50.944Z,1010.50
2017-08-24T10:16:50.924Z,1010.37
2017-08-24T10:17:50.901Z,1010.11
2017-08-24T10:18:50.878Z,1009.93
2017-08-24T10:19:50.857Z,1009.87
2017-08-24T10:20:50.839Z,1009.86
2017-08-24T10:21:50.819Z,1009.85
2017-08-24T10:22:50.794Z,1009.74
2017-08-24T10:23:50.776Z,1009.58
2017-08-24T10:24:50.756Z,1009.54
2017-08-24T10:25:50.731Z,1009.53
2017-08-24T10:26:50.708Z,1009.63
2017-08-24T10:27:50.692Z,1009.63
2017-08-24T10:28:50.693Z,1009.64
2017-08-24T10:29:50.652Z,1009.77
2017-08-24T10:30:50.654Z,1010.09
2017-08-24T10:31:50.606Z,1010.35
2017-08-24T10:32:50.580Z,1010.49
2017-08-24T10:33:50.563Z,1010.49
2017-08-24T10:34:50.541Z,1010.45
2017-08-24T10:35:50.519Z,1010.40
2017-08-24T10:36:50.500Z,1010.28
2017-08-24T10:37:50.473Z,1010.20
2017-08-24T10:38:50.458Z,1010.29
2017-08-24T10:39:50.434Z,1010.38
2017-08-24T10:40:50.412Z,1010.52
2017-08-24T10:41:50.393Z,1010.65
2017-08-24T10:42:50.373Z,1010.68
2017-08-24T10:43:50.347Z,1010.69
2017-08-24T10:44:50.330Z,1010.71
2017-08-24T10:45:50.306Z,1010.79
2017-08-24T10:46:50.285Z,1010.86
2017-08-24T10:47:50.261Z,1010.89
2017-08-24T10:48:50.241Z,1010.88
2017-08-24T10:49:50.221Z,1010.88
2017-08-24T10:50:50.197Z,1010.88
2017-08-24T10:51:50.180Z,1010.85
2017-08-24T10:52:50.154Z,1010.83
2017-08-24T10:53:50.135Z,1010.83
2017-08-24T10:54:50.114Z,1010.84
2017-08-24T10:55:50.095Z,1010.86
2017-08-24T10:56:50.073Z,1010.89
2017-08-24T10:57:50.055Z,1010.89
2017-08-24T10:58:50.029Z,1010.86
2017-08-24T10:59:50.011Z,1010.82
2017-08-24T11:00:49.989Z,1010.89
2017-08-24T11:01:49.965Z,1010.90
2017-08-24T11:02:49.941Z,1010.92
2017-08-24T11:03:49.920Z,1010.89
2017-08-24T11:04:49.907Z,1010.90
2017-08-24T11:05:49.880Z,1010.93
2017-08-24T11:06:49.857Z,1010.92
2017-08-24T11:07:49.840Z,1010.96
2017-08-24T11:08:49.813Z,1010.94
2017-08-24T11:09:49.793Z,1010.93
2017-08-24T11:10:49.776Z,1010.96
2017-08-24T11:11:49.750Z,1010.92
2017-08-24T11:12:49.729Z,1010.92
2017-08-24T11:13:49.706Z,1010.92
2017-08-24T11:14:49.736Z,1010.90
2017-08-24T11:15:49.667Z,1010.87
2017-08-24T11:16:49.648Z,1010.92
2017-08-24T11:17:49.625Z,1010.89
2017-08-24T11:18:49.601Z,1010.94
2017-08-24T11:19:49.581Z,1010.93
2017-08-24T11:20:49.561Z,1010.97
2017-08-24T11:21:49.536Z,1010.93
2017-08-24T11:22:49.521Z,1010.92
2017-08-24T11:23:49.497Z,1010.95
2017-08-24T11:24:49.476Z,1010.93
2017-08-24T11:25:49.455Z,1010.90
2017-08-24T11:26:49.438Z,1010.92
2017-08-24T11:27:49.410Z,1010.92
2017-08-24T11:28:49.393Z,1010.91
2017-08-24T11:29:49.369Z,1010.97
2017-08-24T11:30:49.345Z,1010.95
2017-08-24T11:31:49.329Z,1010.99
2017-08-24T11:32:49.303Z,1011.03
2017-08-24T11:33:49.282Z,1011.03
2017-08-24T11:34:49.264Z,1011.03
2017-08-24T11:35:49.239Z,1011.01
2017-08-24T11:36:49.221Z,1011.02
2017-08-24T11:37:49.200Z,1011.00
2017-08-24T11:38:49.176Z,1011.02
2017-08-24T11:39:49.167Z,1011.02
2017-08-24T11:40:49.136Z,1010.98
2017-08-24T11:41:49.113Z,1010.99
2017-08-24T11:42:49.093Z,1011.05
2017-08-24T11:43:49.067Z,1011.01
2017-08-24T11:44:49.056Z,1010.99
2017-08-24T11:45:49.028Z,1011.01
2017-08-24T11:46:49.029Z,1011.02
2017-08-24T11:47:48.984Z,1011.03
2017-08-24T11:48:48.967Z,1010.99
2017-08-24T11:49:48.940Z,1010.96
2017-08-24T11:50:48.919Z,1010.95
2017-08-24T11:51:48.901Z,1010.90
2017-08-24T11:52:48.877Z,1010.88
2017-08-24T11:53:48.860Z,1010.88
2017-08-24T11:54:48.839Z,1010.89
2017-08-24T11:55:48.813Z,1010.93
2017-08-24T11:56:48.791Z,1010.96
2017-08-24T11:57:48.773Z,1010.95
2017-08-24T11:58:48.753Z,1010.99
2017-08-24T11:59:48.730Z,1011.02
2017-08-24T12:00:48.711Z,1010.98
2017-08-24T12:01:48.689Z,1010.99
2017-08-24T12:02:48.663Z,1011.01
2017-08-24T12:03:48.642Z,1011.01
2017-08-24T12:04:48.626Z,1011.03